Flight Track Log - Related Links

Times and Time Zones

All times are in EDT time to prevent confusion due to time zone crossing. See the JBU1203 flight status page for this flight to view local times or setup timezone preferences in your user account.

Time Position Orientation Groundspeed Altitude Reporting Facility
EDT Latitude Longitude Course Direction KTS MPH feet Rate Location/Type
Mon 11:10:48 PM 40.5831 -73.8833 125° Southeast 237 273 4,700  Level New York Center
Mon 11:11:48 PM 40.5411 -73.8161 129° Southeast 198 228 8,200 3,100 Climbing New York Center
Mon 11:12:00 PM 40.3669 -73.3086 131° Southeast  Level FlightAware Approximate
Mon 11:12:48 PM 40.5022 -73.7133 116° Southeast 242 278 10,900  Level New York Center
Mon 11:13:00 PM 40.2888 -73.1867 128° Southeast  Level FlightAware Approximate
Mon 11:13:48 PM 40.4553 -73.5858 116° Southeast 321 369 13,700  Level New York Center
Mon 11:14:00 PM 40.2140 -73.0615 128° Southeast  Level FlightAware Approximate
Mon 11:14:48 PM 40.4119 -73.4722 117° Southeast 373 429 16,100  Level New York Center
Mon 11:15:00 PM 40.1390 -72.9366 128° Southeast  Level FlightAware Approximate
Mon 11:15:48 PM 40.3464 -73.3364 122° Southeast 396 456 18,500  Level New York Center
Mon 11:16:00 PM 40.0640 -72.8118 125° Southeast  Level FlightAware Approximate
Mon 11:16:48 PM 40.2608 -73.2381 139° Southeast 402 463 20,500  Level New York Center
Mon 11:17:48 PM 40.1714 -73.1289 137° Southeast 421 484 22,500 1,950 Climbing New York Center
Mon 11:18:48 PM 40.0778 -73.0169 138° Southeast 444 511 24,400 1,900 Climbing New York Center
Mon 11:19:48 PM 39.9861 -72.9058 137° Southeast 449 517 26,300 1,650 Climbing New York Center
Mon 11:20:48 PM 39.8903 -72.7892 137° Southeast 456 525 27,700 1,400 Climbing New York Center
Mon 11:21:48 PM 39.7900 -72.6728 138° Southeast 467 537 29,100 1,300 Climbing New York Center
Mon 11:22:48 PM 39.6900 -72.5486 136° Southeast 482 555 30,300 1,400 Climbing New York Center
Mon 11:23:48 PM 39.5875 -72.4275 138° Southeast 496 571 31,900 1,450 Climbing New York Center
Mon 11:24:48 PM 39.4850 -72.3014 136° Southeast 502 578 33,200 1,500 Climbing New York Center
Mon 11:25:48 PM 39.3822 -72.1836 138° Southeast 502 578 34,900 1,600 Climbing New York Center
Mon 11:26:48 PM 39.2817 -72.0661 138° Southeast 502 578 36,400 1,300 Climbing New York Center
Mon 11:27:48 PM 39.1847 -71.9492 137° Southeast 497 572 37,500 1,000 Climbing New York Center
Mon 11:28:48 PM 39.0858 -71.8297 137° Southeast 487 560 38,400 700 Climbing New York Center
Mon 11:29:48 PM 38.9869 -71.7214 140° Southeast 482 555 38,900 300 Climbing New York Center
Mon 11:30:48 PM 38.8897 -71.6000 136° Southeast 482 555 39,000 50 Climbing New York Center
Mon 11:31:48 PM 38.7842 -71.4922 141° Southeast 482 555 39,000 -50 Level New York Center
Mon 11:32:48 PM 38.6869 -71.3714 136° Southeast 482 555 38,900 -50 Descending New York Center
Mon 11:33:48 PM 38.5872 -71.2642 140° Southeast 482 555 38,900  Level New York Center
Mon 11:34:48 PM 38.4897 -71.1494 137° Southeast 482 555 38,900 50 Level New York Center
Mon 11:35:48 PM 38.3922 -71.0350 137° Southeast 477 549 39,000 50 Climbing New York Center
Mon 11:36:48 PM 38.2964 -70.9181 136° Southeast 477 549 39,000 -50 Level New York Center
Mon 11:37:48 PM 38.1922 -70.8147 142° Southeast 477 549 38,900  Descending New York Center
Mon 11:38:48 PM 38.0861 -70.7250 146° Southeast 472 543 39,000 50 Climbing New York Center
Mon 11:39:48 PM 37.9836 -70.6194 141° Southeast 472 543 39,000  Level New York Center
Mon 11:40:48 PM 37.8711 -70.5356 150° Southeast 472 543 39,000  Level New York Center
Mon 11:41:48 PM 37.7561 -70.4675 155° Southeast 472 543 39,000  Level New York Center
Mon 11:43:00 PM 37.6386 -70.3665 146° Southeast  Level FlightAware Approximate
Mon 11:50:00 PM 36.9023 -69.9043 155° Southeast  Level FlightAware Approximate
Mon 11:51:00 PM 36.7957 -69.8400 154° Southeast  Level FlightAware Approximate
Mon 11:52:00 PM 36.6892 -69.7752 154° Southeast  Level FlightAware Approximate
Mon 11:53:00 PM 36.5828 -69.7106 154° Southeast  Level FlightAware Approximate
Mon 11:54:00 PM 36.4763 -69.6462 154° Southeast  Level FlightAware Approximate
Mon 11:55:00 PM 36.3697 -69.5819 154° Southeast  Level FlightAware Approximate
Mon 11:56:00 PM 36.2631 -69.5178 154° Southeast  Level FlightAware Approximate
Mon 11:57:00 PM 36.1565 -69.4539 154° Southeast  Level FlightAware Approximate
Mon 11:58:00 PM 36.0415 -69.4202 167° South  Level FlightAware Approximate
Mon 11:58:01 PM 36.1667 -69.4500 168° South 448 516 39,000  Level New York Oceanic (ODAPS)
Mon 11:59:00 PM 35.9259 -69.3885 167° South  Level FlightAware Approximate
Tue 12:00:00 AM 35.8102 -69.3569 168° South  Level FlightAware Approximate
Tue 12:01:00 AM 35.6946 -69.3253 168° South  Level FlightAware Approximate
Tue 12:02:00 AM 35.5790 -69.2939 168° South  Level FlightAware Approximate
Tue 12:03:00 AM 35.4633 -69.2626 168° South  Level FlightAware Approximate
Tue 12:04:00 AM 35.1899 -69.1891 168° South 448 516 39,000  Level FlightAware Transoceanic
Tue 12:05:00 AM 35.0677 -69.1569 168° South 448 516 39,000  Level FlightAware Transoceanic
Tue 12:06:00 AM 34.9456 -69.1248 168° South 448 516 39,000  Level FlightAware Transoceanic
Tue 12:07:00 AM 34.8235 -69.0928 168° South 448 516 39,000  Level FlightAware Transoceanic
Tue 12:08:00 AM 34.7013 -69.0609 168° South 448 516 39,000  Level FlightAware Transoceanic
Tue 12:09:00 AM 34.5791 -69.0291 168° South 448 516 39,000  Level FlightAware Transoceanic
Tue 12:10:00 AM 34.4570 -68.9974 168° South 448 516 39,000  Level FlightAware Transoceanic
Tue 12:11:00 AM 34.3348 -68.9658 168° South 448 516 39,000  Level FlightAware Transoceanic
Tue 12:12:00 AM 34.2126 -68.9343 168° South 448 516 39,000  Level FlightAware Transoceanic
Tue 12:13:00 AM 34.0904 -68.9029 168° South 448 516 39,000  Level FlightAware Transoceanic
Tue 12:14:00 AM 33.9682 -68.8716 168° South 448 516 39,000  Level FlightAware Transoceanic
Tue 12:15:00 AM 33.8459 -68.8403 168° South 448 516 39,000  Level FlightAware Transoceanic
Tue 12:16:00 AM 33.7237 -68.8092 168° South 448 516 39,000  Level FlightAware Transoceanic
Tue 12:17:00 AM 33.6015 -68.7781 168° South 448 516 39,000  Level FlightAware Transoceanic
Tue 12:18:00 AM 33.4792 -68.7471 168° South 448 516 39,000  Level FlightAware Transoceanic
Tue 12:19:00 AM 33.3570 -68.7162 168° South 448 516 39,000  Level FlightAware Transoceanic
Tue 12:20:00 AM 33.2347 -68.6854 168° South 448 516 39,000  Level FlightAware Transoceanic
Tue 12:21:00 AM 33.1125 -68.6547 168° South 448 516 39,000  Level FlightAware Transoceanic
Tue 12:22:00 AM 32.9902 -68.6241 168° South 448 516 39,000  Level FlightAware Transoceanic
Tue 12:23:00 AM 32.8679 -68.5935 168° South 448 516 39,000  Level FlightAware Transoceanic
Tue 12:24:00 AM 32.7456 -68.5631 168° South 448 516 39,000  Level FlightAware Transoceanic
Tue 12:25:00 AM 32.6233 -68.5327 168° South 448 516 39,000  Level FlightAware Transoceanic
Tue 12:26:00 AM 32.5010 -68.5024 168° South 448 516 39,000  Level FlightAware Transoceanic
Tue 12:27:00 AM 32.3787 -68.4722 168° South 448 516 39,000  Level FlightAware Transoceanic
Tue 12:28:00 AM 32.2564 -68.4420 168° South 448 516 39,000  Level FlightAware Transoceanic
Tue 12:29:00 AM 32.1341 -68.4120 168° South 448 516 39,000  Level FlightAware Transoceanic
Tue 12:30:00 AM 32.0117 -68.3820 168° South 448 516 39,000  Level FlightAware Transoceanic
Tue 12:31:00 AM 31.8894 -68.3521 168° South 448 516 39,000  Level FlightAware Transoceanic
Tue 12:32:00 AM 31.7671 -68.3223 168° South 448 516 39,000  Level FlightAware Transoceanic
Tue 12:33:00 AM 31.6447 -68.2926 168° South 448 516 39,000  Level FlightAware Transoceanic
Tue 12:34:00 AM 31.5224 -68.2629 168° South 448 516 39,000  Level FlightAware Transoceanic
Tue 12:35:00 AM 31.4000 -68.2333 168° South 448 516 39,000  Level FlightAware Transoceanic
Tue 12:36:00 AM 31.2790 -68.2042 168° South 448 516 39,000  Level FlightAware Transoceanic
Tue 12:37:00 AM 31.1580 -68.1752 168° South 448 516 39,000  Level FlightAware Transoceanic
Tue 12:37:42 AM 31.4000 -68.2333 168° South 426 490 39,000  Level New York Oceanic (ODAPS)
Tue 12:38:00 AM 31.0370 -68.1462 168° South 448 516 39,000  Level FlightAware Transoceanic
Tue 12:39:00 AM 30.9160 -68.1174 168° South 448 516 39,000  Level FlightAware Transoceanic
Tue 12:40:00 AM 30.7949 -68.0886 168° South 448 516 39,000  Level FlightAware Transoceanic
Tue 12:41:00 AM 30.6739 -68.0598 168° South 448 516 39,000  Level FlightAware Transoceanic
Tue 12:42:00 AM 30.5529 -68.0312 168° South 448 516 39,000  Level FlightAware Transoceanic
Tue 12:43:00 AM 30.4455 -68.0058 169° South 426 490 39,000  Level FlightAware Transoceanic
Tue 12:44:00 AM 30.3261 -67.9777 169° South 426 490 39,000  Level FlightAware Transoceanic
Tue 12:45:00 AM 30.2068 -67.9496 169° South 426 490 39,000  Level FlightAware Transoceanic
Tue 12:46:00 AM 30.0874 -67.9216 169° South 426 490 39,000  Level FlightAware Transoceanic
Tue 12:47:00 AM 29.9681 -67.8937 169° South 426 490 39,000  Level FlightAware Transoceanic
Tue 12:48:00 AM 29.8487 -67.8659 169° South 426 490 39,000  Level FlightAware Transoceanic
Tue 12:49:00 AM 29.7293 -67.8381 169° South 426 490 39,000  Level FlightAware Transoceanic
Tue 12:50:00 AM 29.6099 -67.8103 169° South 426 490 39,000  Level FlightAware Transoceanic
Tue 12:51:00 AM 29.4906 -67.7827 169° South 426 490 39,000  Level FlightAware Transoceanic
Tue 12:52:00 AM 29.3712 -67.7551 169° South 426 490 39,000  Level FlightAware Transoceanic
Tue 12:53:00 AM 29.2518 -67.7276 169° South 426 490 39,000  Level FlightAware Transoceanic
Tue 12:54:00 AM 29.1324 -67.7001 169° South 426 490 39,000  Level FlightAware Transoceanic
Tue 12:55:00 AM 29.0130 -67.6727 169° South 426 490 39,000  Level FlightAware Transoceanic
Tue 12:56:00 AM 28.8936 -67.6454 169° South 426 490 39,000  Level FlightAware Transoceanic
Tue 12:57:00 AM 28.7741 -67.6181 169° South 426 490 39,000  Level FlightAware Transoceanic
Tue 12:58:00 AM 28.6547 -67.5909 169° South 426 490 39,000  Level FlightAware Transoceanic
Tue 12:59:00 AM 28.5353 -67.5637 169° South 426 490 39,000  Level FlightAware Transoceanic
Tue 01:00:00 AM 28.4158 -67.5367 169° South 426 490 39,000  Level FlightAware Transoceanic
Tue 01:01:00 AM 28.2964 -67.5096 169° South 426 490 39,000  Level FlightAware Transoceanic
Tue 01:02:00 AM 28.1770 -67.4827 169° South 426 490 39,000  Level FlightAware Transoceanic
Tue 01:03:00 AM 28.0575 -67.4557 169° South 426 490 39,000  Level FlightAware Transoceanic
Tue 01:04:00 AM 27.9381 -67.4289 169° South 426 490 39,000  Level FlightAware Transoceanic
Tue 01:05:00 AM 27.8186 -67.4021 169° South 426 490 39,000  Level FlightAware Transoceanic
Tue 01:06:00 AM 27.6991 -67.3754 169° South 426 490 39,000  Level FlightAware Transoceanic
Tue 01:07:00 AM 27.5797 -67.3487 169° South 426 490 39,000  Level FlightAware Transoceanic
Tue 01:08:00 AM 27.4602 -67.3221 169° South 426 490 39,000  Level FlightAware Transoceanic
Tue 01:09:00 AM 27.3407 -67.2956 169° South 426 490 39,000  Level FlightAware Transoceanic
Tue 01:10:00 AM 27.2212 -67.2691 169° South 426 490 39,000  Level FlightAware Transoceanic
Tue 01:11:00 AM 27.1017 -67.2426 169° South 426 490 39,000  Level FlightAware Transoceanic
Tue 01:12:00 AM 26.9822 -67.2162 169° South 426 490 39,000  Level FlightAware Transoceanic
Tue 01:13:00 AM 26.8627 -67.1899 169° South 426 490 39,000  Level FlightAware Transoceanic
Tue 01:14:00 AM 26.7432 -67.1636 169° South 426 490 39,000  Level FlightAware Transoceanic
Tue 01:15:00 AM 26.6237 -67.1374 169° South 426 490 39,000  Level FlightAware Transoceanic
Tue 01:16:00 AM 26.5042 -67.1113 169° South 426 490 39,000  Level FlightAware Transoceanic
Tue 01:17:00 AM 26.3847 -67.0852 169° South 426 490 39,000  Level FlightAware Transoceanic
Tue 01:17:23 AM 27.0833 -67.2500 169° South 434 499 39,000  Level New York Oceanic (ODAPS)
Tue 01:18:00 AM 26.2652 -67.0591 169° South 426 490 39,000  Level FlightAware Transoceanic
Tue 01:19:00 AM 26.1456 -67.0331 169° South 426 490 39,000  Level FlightAware Transoceanic
Tue 01:20:00 AM 26.0261 -67.0072 169° South 426 490 39,000  Level FlightAware Transoceanic
Tue 01:21:00 AM 25.9065 -66.9813 169° South 426 490 39,000  Level FlightAware Transoceanic
Tue 01:22:00 AM 25.7870 -66.9554 169° South 426 490 39,000  Level FlightAware Transoceanic
Tue 01:23:00 AM 25.7744 -66.9605 169° South 434 499 39,000  Level FlightAware Transoceanic
Tue 01:24:00 AM 25.6554 -66.9345 169° South 434 499 39,000  Level FlightAware Transoceanic
Tue 01:25:00 AM 25.5364 -66.9085 169° South 434 499 39,000  Level FlightAware Transoceanic
Tue 01:26:00 AM 25.4173 -66.8826 169° South 434 499 39,000  Level FlightAware Transoceanic
Tue 01:27:00 AM 25.2983 -66.8568 169° South 434 499 39,000  Level FlightAware Transoceanic
Tue 01:28:00 AM 25.1793 -66.8310 169° South 434 499 39,000  Level FlightAware Transoceanic
Tue 01:29:00 AM 25.0602 -66.8052 169° South 434 499 39,000  Level FlightAware Transoceanic
Tue 01:30:00 AM 24.9412 -66.7795 169° South 434 499 39,000  Level FlightAware Transoceanic
Tue 01:31:00 AM 24.8221 -66.7539 169° South 434 499 39,000  Level FlightAware Transoceanic
Tue 01:32:00 AM 24.7030 -66.7283 169° South 434 499 39,000  Level FlightAware Transoceanic
Tue 01:33:00 AM 24.5840 -66.7027 169° South 434 499 39,000  Level FlightAware Transoceanic
Tue 01:34:00 AM 24.4649 -66.6772 169° South 434 499 39,000  Level FlightAware Transoceanic
Tue 01:35:00 AM 24.3458 -66.6518 169° South 434 499 39,000  Level FlightAware Transoceanic
Tue 01:36:00 AM 24.2268 -66.6264 169° South 434 499 39,000  Level FlightAware Transoceanic
Tue 01:37:00 AM 24.1077 -66.6010 169° South 434 499 39,000  Level FlightAware Transoceanic
Tue 01:38:00 AM 23.9886 -66.5757 169° South 434 499 39,000  Level FlightAware Transoceanic
Tue 01:39:00 AM 23.8695 -66.5505 169° South 434 499 39,000  Level FlightAware Transoceanic
Tue 01:40:00 AM 23.7504 -66.5252 169° South 434 499 39,000  Level FlightAware Transoceanic
Tue 01:41:00 AM 23.6313 -66.5001 169° South 434 499 39,000  Level FlightAware Transoceanic
Tue 01:42:00 AM 23.5122 -66.4749 169° South 434 499 39,000  Level FlightAware Transoceanic
Tue 01:43:00 AM 23.3931 -66.4499 169° South 434 499 39,000  Level FlightAware Transoceanic
Tue 01:44:00 AM 23.2740 -66.4248 169° South 434 499 39,000  Level FlightAware Transoceanic
Tue 01:45:00 AM 23.1549 -66.3998 169° South 434 499 39,000  Level FlightAware Transoceanic
Tue 01:46:00 AM 23.0358 -66.3749 169° South 434 499 39,000  Level FlightAware Transoceanic
Tue 01:47:00 AM 22.9167 -66.3500 169° South 434 499 39,000  Level FlightAware Transoceanic
Tue 01:48:00 AM 22.7905 -66.3237 169° South 434 499 39,000  Level FlightAware Transoceanic
Tue 01:48:26 AM 22.9167 -66.3500 169° South 543 625 39,000  Level New York Oceanic (ODAPS)
Tue 01:49:00 AM 22.6643 -66.2974 169° South 434 499 39,000  Level FlightAware Transoceanic
Tue 01:49:45 AM 22.5000 -66.3000 169° South 430 495 39,000  Level San Juan Center
Tue 01:50:00 AM 22.5381 -66.2711 169° South 434 499 39,000  Level FlightAware Transoceanic
Tue 01:50:45 AM 22.3667 -66.2667 167° South 410 472 39,000  Level San Juan Center
Tue 01:51:00 AM 22.4119 -66.2449 169° South 434 499 39,000  Level FlightAware Transoceanic
Tue 01:51:46 AM 22.2333 -66.2333 167° South 470 541 39,000  Level San Juan Center
Tue 01:52:00 AM 22.2857 -66.2188 169° South 434 499 39,000  Level FlightAware Transoceanic
Tue 01:52:46 AM 22.1167 -66.2167 172° South 440 506 39,000  Level San Juan Center
Tue 01:53:00 AM 22.1595 -66.1927 169° South 434 499 39,000  Level FlightAware Transoceanic
Tue 01:53:46 AM 21.9833 -66.1667 161° South 470 541 39,000  Level San Juan Center
Tue 01:54:00 AM 21.9200 -66.1433 169° South 543 625 39,000  Level FlightAware Transoceanic
Tue 01:54:47 AM 21.8667 -66.1500 172° South 460 529 39,000  Level San Juan Center
Tue 01:55:47 AM 21.7333 -66.1167 167° South 450 518 39,000  Level San Juan Center
Tue 01:56:47 AM 21.6167 -66.1000 172° South 460 529 39,000  Level San Juan Center
Tue 01:57:47 AM 21.4833 -66.1167 187° South 450 518 39,000  Level San Juan Center
Tue 01:58:47 AM 21.3500 -66.1167 180° South 460 529 39,000  Level San Juan Center
Tue 01:59:48 AM 21.2333 -66.1333 188° South 450 518 39,000  Level San Juan Center
Tue 02:00:48 AM 21.1000 -66.1333 180° South 450 518 39,000 -550 Level San Juan Center
Tue 02:01:48 AM 20.9667 -66.1333 180° South 430 495 37,900 -2,182 Descending San Juan Center
Tue 02:02:49 AM 20.8333 -66.1333 180° South 460 529 34,600 -3,174 Descending San Juan Center
Tue 02:03:49 AM 20.7000 -66.1333 180° South 460 529 31,500 -3,000 Descending San Juan Center
Tue 02:04:49 AM 20.5833 -66.1333 180° South 460 529 28,600 -2,430 Descending San Juan Center
Tue 02:05:50 AM 20.4500 -66.1500 187° South 450 518 26,600 -1,537 Descending San Juan Center
Tue 02:06:50 AM 20.3167 -66.1500 180° South 440 506 25,500 -1,050 Descending San Juan Center
Tue 02:07:50 AM 20.2000 -66.1500 180° South 440 506 24,500 -942 Descending San Juan Center
Tue 02:08:51 AM 20.0833 -66.1500 180° South 420 483 23,600 -942 Descending San Juan Center
Tue 02:09:51 AM 19.9667 -66.1500 180° South 420 483 22,600 -950 Descending San Juan Center
Tue 02:10:51 AM 19.8500 -66.1500 180° South 410 472 21,700 -992 Descending San Juan Center
Tue 02:11:52 AM 19.7333 -66.1667 188° South 420 483 20,600 -1,041 Descending San Juan Center
Tue 02:12:52 AM 19.6167 -66.1667 180° South 400 460 19,600 -1,200 Descending San Juan Center
Tue 02:13:52 AM 19.5000 -66.1667 180° South 390 449 18,200 -1,450 Descending San Juan Center
Tue 02:14:52 AM 19.4000 -66.1667 180° South 380 437 16,700 -1,636 Descending San Juan Center
Tue 02:15:53 AM 19.3000 -66.1667 180° South 360 414 14,900 -1,934 Descending San Juan Center
Tue 02:16:53 AM 19.2167 -66.2167 210° Southwest 350 403 12,800 -1,700 Descending San Juan Center
Tue 02:17:53 AM 19.1333 -66.2667 210° Southwest 340 391 11,500 -1,339 Descending San Juan Center
Tue 02:18:54 AM 19.0500 -66.3167 210° Southwest 310 357 10,100 -1,537 Descending San Juan Center
Tue 02:19:54 AM 19.0000 -66.3833 232° Southwest 300 345 8,400 -1,650 Descending San Juan Center
Tue 02:20:54 AM 18.9500 -66.4500 232° Southwest 290 334 6,800 -1,488 Descending San Juan Center
Tue 02:21:55 AM 18.9167 -66.5333 247° West 300 345 5,400 -1,190 Descending San Juan Center
Tue 02:22:55 AM 18.8833 -66.6167 247° West 300 345 4,400 -1,000 Descending San Juan Center
Tue 02:23:55 AM 18.8500 -66.6833 242° Southwest 280 322 3,400 -694 Descending San Juan Center
Tue 02:24:56 AM 18.8000 -66.7500 232° Southwest 280 322 3,000 -198 Descending San Juan Center
Tue 02:25:56 AM 18.7167 -66.7667 191° South 280 322 3,000  Level San Juan Center
Tue 02:26:56 AM 18.6500 -66.7667 180° South 250 288 3,000  Level San Juan Center
Tue 02:27:56 AM 18.5833 -66.7667 180° South 260 299 3,000  Level San Juan Center
Tue 02:28:57 AM 18.5167 -66.7167 145° Southeast 250 288 3,000  Level San Juan Center
Tue 02:29:57 AM 18.4833 -66.6500 118° Southeast 250 288 3,000  Level San Juan Center
Tue 02:30:57 AM 18.4667 -66.5833 105° East 250 288 3,000  Level San Juan Center
Tue 02:31:57 AM 18.4500 -66.5167 105° East 250 288 3,000  Level San Juan Center
Tue 02:32:58 AM 18.4333 -66.4500 105° East 250 288 3,000  Level San Juan Center
Tue 02:33:58 AM 18.4167 -66.3833 105° East 240 276 3,000  Level San Juan Center
Tue 02:34:58 AM 18.3833 -66.3167 118° Southeast 230 265 3,000 -99 Level San Juan Center
Tue 02:35:59 AM 18.3833 -66.2500 90° East 200 230 2,800 -248 Descending San Juan Center
Tue 02:36:59 AM 18.3667 -66.2000 109° East 180 207 2,500 -150 Descending San Juan Center
Tue 02:37:59 AM 18.3667 -66.1500 90° East 160 184 2,500 -248 Level San Juan Center
Tue 02:39:00 AM 18.3833 -66.1000 71° East 170 196 2,000 -595 Descending San Juan Center
Tue 02:40:00 AM 18.4000 -66.0667 62° Northeast 120 138 1,300 -650 Descending San Juan Center
Tue 02:41:00 AM 18.4167 -66.0333 62° Northeast 100 115 700 -600 Descending San Juan Center

Login

Don't have an account? Register now (free) for customized features, flight alerts, and more!